Time;durP1;ratioP1;P1;durP2;ratioP2;P2;SDS_P1;SDS_P2;PMS_P1;PMS_P2;Temp;Humidity;BMP_temperature;BMP_pressure;BME280_temperature;BME280_humidity;BME280_pressure;Samples;Min_cycle;Max_cycle;Signal;HPM_P1;HPM_P2
2022/03/25 08:11:32;;;;;;;;;;;;;;;21.17;22.31;99305.22;5269213;24;19979;-70
2022/03/25 08:13:59;;;;;;;;;;;;;;;20.88;23.07;99305.88;4811042;29;20266;-71
2022/03/25 08:16:27;;;;;;;;;;;;;;;20.88;23.83;99299.44;4820804;29;19954;-70
2022/03/25 08:18:54;;;;;;;;;;;;;;;20.73;23.75;99303.84;4815647;29;19946;-68
2022/03/25 08:21:21;;;;;;;;;;;;;;;20.63;23.47;99299.22;4819248;29;19968;-67
2022/03/25 08:29:22;;;;;;;;;;;;;;;20.42;23.84;99302.53;4828912;29;20212;-68
2022/03/25 08:31:49;;;;;;;;;;;;;;;20.41;23.43;99310.25;4827330;29;19963;-68
2022/03/25 08:34:16;;;;;;;;;;;;;;;20.40;22.97;99302.97;4824862;29;19948;-68
2022/03/25 08:36:45;;;;;;;;;;;;;;;20.36;22.78;99304.28;4831163;29;19948;-68
2022/03/25 08:39:12;;;;;;;;;;;;;;;20.20;22.82;99308.66;4824269;29;19953;-68
2022/03/25 08:41:40;;;;;;;;;;;;;;;20.16;23.10;99305.09;4827133;29;20273;-68
2022/03/25 08:44:08;;;;;;;;;;;;;;;20.17;23.55;99301.00;4828529;29;20250;-68
2022/03/25 08:46:36;;;;;;;;;;;;;;;20.17;24.27;99312.34;4826758;29;20340;-67
2022/03/25 08:49:06;;;;;;;;;;;;;;;20.10;24.07;99306.81;4817967;29;20363;-68
2022/03/25 08:51:33;;;;;;;;;;;;;;;20.20;23.85;99314.31;4825646;29;19958;-68
2022/03/25 08:54:00;;;;;;;;;;;;;;;20.20;23.13;99308.66;4827178;29;19951;-67
2022/03/25 08:56:28;;;;;;;;;;;;;;;20.08;22.85;99303.63;4819713;29;19945;-68
2022/03/25 08:58:58;;;;;;;;;;;;;;;19.98;22.47;99318.03;4828032;29;19958;-68
2022/03/25 09:01:26;;;;;;;;;;;;;;;19.93;23.17;99304.38;4830686;29;19973;-68
2022/03/25 09:03:53;;;;;;;;;;;;;;;20.01;23.28;99300.94;4814257;29;19974;-67
2022/03/25 09:06:20;;;;;;;;;;;;;;;19.83;23.85;99303.31;4814057;29;19955;-67
2022/03/25 09:08:49;;;;;;;;;;;;;;;19.94;24.35;99297.44;4829151;29;20022;-67
2022/03/25 09:11:16;;;;;;;;;;;;;;;19.38;25.27;99305.81;4817019;29;19968;-68
2022/03/25 09:13:44;;;;;;;;;;;;;;;19.38;25.10;99303.00;4823360;29;19954;-68
2022/03/25 09:16:13;;;;;;;;;;;;;;;19.61;25.08;99300.09;4822393;29;20342;-68
2022/03/25 09:18:40;;;;;;;;;;;;;;;19.39;24.45;99303.78;4822993;29;19954;-68
2022/03/25 09:21:08;;;;;;;;;;;;;;;19.07;24.50;99310.00;4815745;29;19968;-67
2022/03/25 09:23:35;;;;;;;;;;;;;;;19.19;24.32;99311.41;4822266;29;19948;-67
2022/03/25 09:26:02;;;;;;;;;;;;;;;19.08;24.70;99310.78;4828155;29;19957;-67
2022/03/25 09:28:30;;;;;;;;;;;;;;;19.16;24.75;99309.44;4815812;29;19950;-68
2022/03/25 09:30:57;;;;;;;;;;;;;;;18.71;25.16;99312.56;4826937;29;20219;-68
2022/03/25 09:33:26;;;;;;;;;;;;;;;19.02;26.24;99301.97;4824702;29;19963;-68
2022/03/25 09:35:53;;;;;;;;;;;;;;;18.91;26.05;99302.13;4829021;29;19988;-67
2022/03/25 09:38:21;;;;;;;;;;;;;;;19.01;26.24;99295.50;4829460;29;19951;-68
2022/03/25 09:40:48;;;;;;;;;;;;;;;19.07;26.33;99303.50;4827704;29;20256;-68
2022/03/25 09:43:18;;;;;;;;;;;;;;;18.94;27.07;99301.28;4826019;29;19959;-68
2022/03/25 09:45:45;;;;;;;;;;;;;;;18.99;26.36;99300.00;4820358;29;20418;-68
2022/03/25 09:48:13;;;;;;;;;;;;;;;18.88;26.57;99300.16;4823344;29;19949;-67
2022/03/25 09:50:41;;;;;;;;;;;;;;;18.78;27.06;99292.63;4813980;29;19952;-67
2022/03/25 09:53:13;;;;;;;;;;;;;;;18.63;26.57;99296.94;4833823;29;19955;-68
2022/03/25 09:55:42;;;;;;;;;;;;;;;18.58;26.95;99293.78;4828282;29;19954;-68
2022/03/25 09:58:11;;;;;;;;;;;;;;;18.77;27.49;99293.06;4808469;29;19981;-68
2022/03/25 10:00:38;;;;;;;;;;;;;;;18.85;27.17;99291.72;4823128;29;19957;-67
2022/03/25 10:03:05;;;;;;;;;;;;;;;18.80;26.79;99284.53;4823919;29;19971;-67
2022/03/25 10:05:34;;;;;;;;;;;;;;;18.97;26.96;99288.28;4826855;29;19947;-68
2022/03/25 10:08:02;;;;;;;;;;;;;;;19.00;27.02;99288.22;4826093;29;20263;-68
2022/03/25 10:10:30;;;;;;;;;;;;;;;18.46;29.72;99285.84;4825624;29;19951;-68
2022/03/25 10:13:02;;;;;;;;;;;;;;;18.45;28.79;99281.38;4804534;29;19952;-67
2022/03/25 10:15:31;;;;;;;;;;;;;;;18.41;27.81;99281.44;4819561;29;19951;-67
2022/03/25 10:18:03;;;;;;;;;;;;;;;18.29;27.26;99276.38;4823916;29;19957;-68
2022/03/25 10:20:30;;;;;;;;;;;;;;;18.41;28.30;99281.44;4828545;29;19962;-68
2022/03/25 10:22:57;;;;;;;;;;;;;;;18.59;27.40;99275.53;4828780;29;19936;-68
2022/03/25 10:25:31;;;;;;;;;;;;;;;18.45;27.00;99278.56;4828149;29;19947;-68
2022/03/25 10:27:59;;;;;;;;;;;;;;;18.20;27.28;99264.75;4826315;29;19950;-68
2022/03/25 10:30:34;;;;;;;;;;;;;;;18.27;27.44;99267.47;4823061;29;19954;-68
2022/03/25 10:33:09;;;;;;;;;;;;;;;17.92;28.33;99268.78;4813152;29;19952;-68
2022/03/25 10:35:52;;;;;;;;;;;;;;;18.14;26.78;99272.91;4824539;29;19948;-69
2022/03/25 10:38:20;;;;;;;;;;;;;;;17.96;27.42;99263.84;4828472;29;19949;-70
2022/03/25 10:40:51;;;;;;;;;;;;;;;17.85;28.33;99260.34;4828234;29;19953;-70
2022/03/25 10:43:18;;;;;;;;;;;;;;;17.97;28.08;99265.47;4827255;29;20224;-70
2022/03/25 10:50:53;;;;;;;;;;;;;;;18.09;29.61;99253.59;4833958;29;19940;-70
2022/03/25 10:53:23;;;;;;;;;;;;;;;18.07;27.11;99258.84;4827403;29;19962;-70
2022/03/25 10:55:54;;;;;;;;;;;;;;;18.31;26.92;99269.03;4824041;29;19960;-70
2022/03/25 10:58:22;;;;;;;;;;;;;;;18.34;29.08;99253.22;4827926;29;20029;-70
2022/03/25 11:00:49;;;;;;;;;;;;;;;18.47;26.93;99253.47;4827041;29;19946;-70
2022/03/25 11:03:17;;;;;;;;;;;;;;;18.32;26.77;99261.34;4824769;29;19966;-70
2022/03/25 11:05:45;;;;;;;;;;;;;;;18.44;27.50;99254.31;4824052;29;19959;-70
2022/03/25 11:08:12;;;;;;;;;;;;;;;18.42;28.99;99256.75;4826208;29;19945;-70
2022/03/25 11:10:39;;;;;;;;;;;;;;;18.39;28.27;99255.56;4827229;29;19980;-70
2022/03/25 11:13:08;;;;;;;;;;;;;;;18.01;27.30;99254.09;4824378;29;20421;-70
2022/03/25 11:15:37;;;;;;;;;;;;;;;18.25;27.23;99248.09;4819763;29;19948;-70
2022/03/25 11:18:05;;;;;;;;;;;;;;;18.26;27.13;99243.22;4820018;29;19946;-70
2022/03/25 11:20:32;;;;;;;;;;;;;;;18.44;27.15;99240.16;4827480;29;19952;-70
2022/03/25 11:23:09;;;;;;;;;;;;;;;18.52;27.90;99239.63;4819003;29;19963;-71
2022/03/25 11:25:48;;;;;;;;;;;;;;;18.73;27.06;99230.78;4813608;29;20275;-70
2022/03/25 11:28:17;;;;;;;;;;;;;;;18.59;27.52;99239.50;4827508;29;19958;-70
2022/03/25 11:30:55;;;;;;;;;;;;;;;18.60;28.68;99235.47;4814589;29;19949;-70
2022/03/25 11:33:22;;;;;;;;;;;;;;;18.35;28.88;99224.47;4813691;29;20361;-70
2022/03/25 11:36:10;;;;;;;;;;;;;;;18.49;27.56;99236.84;4817817;29;20344;-70
2022/03/25 11:38:37;;;;;;;;;;;;;;;18.49;27.58;99223.47;4812656;29;19959;-71
2022/03/25 11:41:21;;;;;;;;;;;;;;;18.19;27.09;99229.97;4812738;29;19954;-70
2022/03/25 11:44:07;;;;;;;;;;;;;;;17.87;29.15;99228.81;4818766;29;19973;-70
2022/03/25 11:46:34;;;;;;;;;;;;;;;17.90;27.94;99225.94;4824318;29;19957;-70
2022/03/25 11:49:17;;;;;;;;;;;;;;;18.25;27.41;99222.59;4812125;29;20006;-70
2022/03/25 11:51:46;;;;;;;;;;;;;;;18.29;29.32;99217.69;4819126;29;19953;-70
2022/03/25 11:54:32;;;;;;;;;;;;;;;18.25;27.97;99214.13;4821290;29;19984;-70
2022/03/25 11:57:01;;;;;;;;;;;;;;;18.27;28.46;99213.69;4811807;29;20381;-70
2022/03/25 11:59:45;;;;;;;;;;;;;;;18.27;29.11;99210.84;4820729;29;19951;-70
2022/03/25 12:02:23;;;;;;;;;;;;;;;18.49;27.47;99214.97;4824752;29;19981;-70
2022/03/25 12:04:50;;;;;;;;;;;;;;;18.43;29.67;99207.38;4827653;29;19960;-70
2022/03/25 12:07:18;;;;;;;;;;;;;;;18.50;29.04;99210.94;4827033;29;19952;-70
2022/03/25 12:09:46;;;;;;;;;;;;;;;18.42;27.34;99198.06;4820168;29;19953;-70
2022/03/25 12:12:14;;;;;;;;;;;;;;;18.29;29.46;99197.88;4823142;29;19977;-70
2022/03/25 12:15:00;;;;;;;;;;;;;;;18.25;29.71;99194.28;4820587;29;19962;-70
2022/03/25 12:17:27;;;;;;;;;;;;;;;18.13;27.66;99194.06;4819365;29;19957;-70
2022/03/25 12:19:55;;;;;;;;;;;;;;;18.14;28.33;99187.19;4820595;29;19955;-70
2022/03/25 12:22:23;;;;;;;;;;;;;;;18.27;30.63;99177.69;4822604;29;19977;-70
2022/03/25 12:24:51;;;;;;;;;;;;;;;18.13;28.72;99172.25;4822552;29;20339;-70
2022/03/25 12:27:19;;;;;;;;;;;;;;;18.38;29.14;99169.03;4823825;29;19949;-70
2022/03/25 12:29:48;;;;;;;;;;;;;;;18.43;27.61;99171.38;4816271;29;20340;-70
2022/03/25 12:32:16;;;;;;;;;;;;;;;18.38;28.70;99177.50;4821975;29;19956;-70
2022/03/25 12:34:44;;;;;;;;;;;;;;;18.45;28.14;99170.94;4817113;29;19976;-70
2022/03/25 12:37:15;;;;;;;;;;;;;;;18.34;27.84;99165.44;4820794;29;19952;-70
2022/03/25 12:39:42;;;;;;;;;;;;;;;18.18;29.01;99159.63;4825663;29;20387;-70
2022/03/25 12:42:11;;;;;;;;;;;;;;;18.28;28.24;99161.50;4825515;29;19952;-71
2022/03/25 12:44:38;;;;;;;;;;;;;;;18.37;29.67;99151.22;4823425;29;19954;-71
2022/03/25 12:47:06;;;;;;;;;;;;;;;18.03;28.35;99158.25;4815793;29;19970;-70
2022/03/25 12:49:34;;;;;;;;;;;;;;;18.13;28.51;99146.75;4826622;29;19955;-71
2022/03/25 12:52:03;;;;;;;;;;;;;;;18.27;29.49;99146.53;4823101;29;20068;-71
2022/03/25 12:54:33;;;;;;;;;;;;;;;18.11;27.67;99154.88;4825570;29;19972;-70
2022/03/25 12:57:02;;;;;;;;;;;;;;;18.21;27.59;99141.78;4825068;29;19958;-70
2022/03/25 12:59:57;;;;;;;;;;;;;;;18.15;28.18;99143.50;4819860;29;19953;-70
2022/03/25 13:02:35;;;;;;;;;;;;;;;18.20;27.21;99135.31;4822426;29;19954;-70
2022/03/25 13:05:15;;;;;;;;;;;;;;;18.22;29.50;99132.84;4822726;29;19971;-70
2022/03/25 13:07:50;;;;;;;;;;;;;;;18.25;28.80;99131.19;4813183;29;19953;-70
2022/03/25 13:10:17;;;;;;;;;;;;;;;18.39;29.48;99128.94;4828823;29;19961;-70
2022/03/25 13:12:50;;;;;;;;;;;;;;;18.57;28.75;99119.34;4831395;29;20249;-70
2022/03/25 13:15:19;;;;;;;;;;;;;;;18.42;28.14;99123.63;4832062;29;19956;-70
2022/03/25 13:17:47;;;;;;;;;;;;;;;18.31;28.43;99121.78;4835748;29;19954;-69
2022/03/25 13:20:19;;;;;;;;;;;;;;;18.35;28.33;99116.06;4822658;29;19958;-70
2022/03/25 13:22:57;;;;;;;;;;;;;;;18.35;28.13;99119.72;4829548;29;19973;-70
2022/03/25 13:25:27;;;;;;;;;;;;;;;18.33;27.94;99110.84;4827354;29;20266;-70
2022/03/25 13:27:56;;;;;;;;;;;;;;;18.42;29.68;99100.97;4823783;29;19960;-69
2022/03/25 13:30:23;;;;;;;;;;;;;;;18.47;29.47;99114.69;4826985;29;19952;-70
2022/03/25 13:33:01;;;;;;;;;;;;;;;18.56;27.95;99103.63;4824147;29;19956;-70
2022/03/25 13:35:32;;;;;;;;;;;;;;;18.56;27.61;99109.28;4825630;29;19954;-70
2022/03/25 13:38:01;;;;;;;;;;;;;;;18.60;28.36;99101.50;4826911;29;19962;-70
2022/03/25 13:40:29;;;;;;;;;;;;;;;18.33;26.93;99095.88;4828885;29;19957;-70
2022/03/25 13:42:57;;;;;;;;;;;;;;;18.30;26.93;99091.06;4827893;29;19977;-70
2022/03/25 13:45:24;;;;;;;;;;;;;;;18.37;27.54;99096.63;4829276;29;19949;-70
2022/03/25 13:47:59;;;;;;;;;;;;;;;18.22;26.52;99089.59;4825392;29;19961;-70
2022/03/25 13:50:27;;;;;;;;;;;;;;;18.20;27.91;99081.53;4825952;29;20346;-70
2022/03/25 13:53:00;;;;;;;;;;;;;;;18.00;27.51;99091.97;4820094;29;19950;-70
2022/03/25 13:55:31;;;;;;;;;;;;;;;18.33;27.13;99085.38;4825368;29;20340;-70
2022/03/25 13:57:59;;;;;;;;;;;;;;;18.31;27.52;99082.13;4828723;29;20263;-70
2022/03/25 14:00:30;;;;;;;;;;;;;;;18.26;27.12;99079.03;4828466;29;19955;-70
2022/03/25 14:02:58;;;;;;;;;;;;;;;18.04;27.05;99074.94;4828258;29;19969;-70
2022/03/25 14:05:25;;;;;;;;;;;;;;;18.15;27.33;99069.91;4827701;29;19965;-70
2022/03/25 14:07:54;;;;;;;;;;;;;;;18.43;28.59;99071.44;4829068;29;19961;-71
2022/03/25 14:10:21;;;;;;;;;;;;;;;18.63;26.66;99069.50;4823032;29;19950;-70
2022/03/25 14:12:56;;;;;;;;;;;;;;;18.55;27.00;99071.66;4813697;29;19952;-70
2022/03/25 14:15:26;;;;;;;;;;;;;;;18.34;26.30;99067.13;4828111;29;19953;-70
2022/03/25 14:17:57;;;;;;;;;;;;;;;18.12;25.65;99065.13;4820140;29;19980;-70
2022/03/25 14:20:28;;;;;;;;;;;;;;;18.41;25.15;99071.88;4815127;29;20351;-70
2022/03/25 14:22:56;;;;;;;;;;;;;;;18.52;24.86;99071.69;4820625;29;19951;-70
2022/03/25 14:25:27;;;;;;;;;;;;;;;18.52;27.06;99060.38;4825493;29;19953;-66
2022/03/25 14:27:59;;;;;;;;;;;;;;;18.55;25.42;99063.16;4820390;29;19954;-66
2022/03/25 14:30:27;;;;;;;;;;;;;;;18.55;26.44;99057.50;4828161;29;19966;-67
2022/03/25 14:32:55;;;;;;;;;;;;;;;18.47;26.39;99063.69;4826382;29;20262;-67
2022/03/25 14:35:22;;;;;;;;;;;;;;;18.56;24.65;99059.06;4822040;29;19953;-67
2022/03/25 14:37:50;;;;;;;;;;;;;;;18.68;24.80;99061.28;4824066;29;19950;-70
2022/03/25 14:40:18;;;;;;;;;;;;;;;18.52;25.04;99061.19;4826120;29;19977;-70
2022/03/25 14:42:45;;;;;;;;;;;;;;;18.37;25.20;99068.28;4825892;29;20347;-70
2022/03/25 14:45:13;;;;;;;;;;;;;;;18.45;25.79;99052.78;4827400;29;19979;-70
2022/03/25 14:47:40;;;;;;;;;;;;;;;18.41;25.38;99059.75;4828193;29;20334;-70
2022/03/25 14:50:09;;;;;;;;;;;;;;;18.30;25.10;99054.25;4820192;29;20263;-70
2022/03/25 14:52:38;;;;;;;;;;;;;;;18.24;25.89;99056.00;4827557;29;19960;-70
2022/03/25 14:55:06;;;;;;;;;;;;;;;18.21;27.17;99049.19;4829495;29;19950;-69
2022/03/25 14:57:34;;;;;;;;;;;;;;;18.17;26.37;99053.28;4827004;29;19970;-70
2022/03/25 15:00:03;;;;;;;;;;;;;;;18.14;25.81;99040.78;4825494;29;19966;-69
2022/03/25 15:02:30;;;;;;;;;;;;;;;18.22;25.15;99052.78;4826182;29;19955;-67
2022/03/25 15:05:00;;;;;;;;;;;;;;;18.27;25.27;99049.47;4826832;29;19972;-67
2022/03/25 15:07:27;;;;;;;;;;;;;;;18.24;25.91;99050.34;4826573;29;19951;-67
2022/03/25 15:09:55;;;;;;;;;;;;;;;18.11;25.59;99046.50;4829098;29;19955;-67
2022/03/25 15:12:22;;;;;;;;;;;;;;;18.07;25.61;99043.72;4827025;29;20384;-67
2022/03/25 15:14:50;;;;;;;;;;;;;;;17.93;26.11;99055.28;4825919;29;19951;-67
2022/03/25 15:17:19;;;;;;;;;;;;;;;17.83;26.01;99058.28;4826822;29;19959;-67
2022/03/25 15:19:51;;;;;;;;;;;;;;;17.84;26.25;99043.72;4826990;29;19950;-67
2022/03/25 15:22:19;;;;;;;;;;;;;;;17.75;26.40;99043.47;4831061;29;20299;-67
2022/03/25 15:24:46;;;;;;;;;;;;;;;17.71;25.59;99052.00;4826603;29;19978;-67
2022/03/25 15:27:14;;;;;;;;;;;;;;;17.66;26.42;99046.03;4815008;29;20257;-67
2022/03/25 15:35:13;;;;;;;;;;;;;;;17.40;26.19;99047.59;4816552;29;19954;-67
2022/03/25 15:37:59;;;;;;;;;;;;;;;17.41;26.02;99043.53;4821704;29;19957;-67
2022/03/25 15:40:26;;;;;;;;;;;;;;;17.36;26.29;99035.53;4818911;29;19949;-67
2022/03/25 15:42:53;;;;;;;;;;;;;;;17.28;26.69;99028.38;4826557;29;19955;-67
2022/03/25 15:45:21;;;;;;;;;;;;;;;17.29;26.69;99035.63;4822378;29;19969;-67
2022/03/25 15:47:49;;;;;;;;;;;;;;;17.26;26.76;99028.00;4822926;29;19955;-67
2022/03/25 15:50:16;;;;;;;;;;;;;;;17.22;27.00;99029.25;4825485;29;20237;-67
2022/03/25 15:52:43;;;;;;;;;;;;;;;17.19;27.13;99030.91;4826730;29;19960;-67
2022/03/25 15:55:11;;;;;;;;;;;;;;;17.20;27.67;99029.69;4825677;29;19956;-66
2022/03/25 15:57:51;;;;;;;;;;;;;;;17.27;28.02;99031.63;4826289;29;19959;-67
2022/03/25 16:00:19;;;;;;;;;;;;;;;17.26;28.94;99028.00;4827348;29;19981;-67
2022/03/25 16:02:47;;;;;;;;;;;;;;;17.34;27.87;99028.69;4826775;29;19959;-67
2022/03/25 16:05:14;;;;;;;;;;;;;;;17.46;28.09;99031.75;4816408;29;19971;-67
2022/03/25 16:07:43;;;;;;;;;;;;;;;17.39;27.22;99034.69;4825786;29;19956;-67
2022/03/25 16:10:10;;;;;;;;;;;;;;;17.46;27.26;99030.97;4826647;29;19963;-67
2022/03/25 16:12:38;;;;;;;;;;;;;;;17.44;27.55;99027.75;4821543;29;19952;-67
2022/03/25 16:15:08;;;;;;;;;;;;;;;17.40;27.00;99027.81;4825038;29;19948;-67
2022/03/25 16:17:36;;;;;;;;;;;;;;;17.41;27.12;99022.97;4825779;29;19956;-67
2022/03/25 16:20:04;;;;;;;;;;;;;;;17.31;27.04;99024.69;4822686;29;19952;-67
2022/03/25 16:22:32;;;;;;;;;;;;;;;17.39;26.90;99034.69;4820003;29;19953;-67
2022/03/25 16:24:59;;;;;;;;;;;;;;;17.34;27.04;99031.50;4823614;29;19974;-67
2022/03/25 16:27:28;;;;;;;;;;;;;;;17.25;27.20;99023.56;4814452;29;19951;-67
2022/03/25 16:29:55;;;;;;;;;;;;;;;17.21;28.25;99022.84;4817909;29;19984;-68
2022/03/25 16:32:23;;;;;;;;;;;;;;;17.34;27.89;99025.84;4817021;29;20254;-70
2022/03/25 16:34:50;;;;;;;;;;;;;;;17.21;28.15;99033.34;4825420;29;19955;-70
2022/03/25 16:37:18;;;;;;;;;;;;;;;17.31;27.62;99027.50;4826127;29;19948;-70
2022/03/25 16:39:45;;;;;;;;;;;;;;;17.33;27.89;99025.09;4823648;29;19950;-70
2022/03/25 16:42:13;;;;;;;;;;;;;;;17.24;28.27;99024.00;4824243;29;19951;-69
2022/03/25 16:44:40;;;;;;;;;;;;;;;17.16;28.20;99022.50;4819275;29;19959;-70
2022/03/25 16:47:08;;;;;;;;;;;;;;;17.20;28.28;99026.88;4826080;29;19958;-70
2022/03/25 16:49:39;;;;;;;;;;;;;;;17.11;28.42;99034.28;4826921;29;19948;-70
2022/03/25 16:52:07;;;;;;;;;;;;;;;17.02;28.52;99032.75;4828655;29;19966;-70
2022/03/25 16:54:34;;;;;;;;;;;;;;;16.97;28.89;99035.28;4839270;29;20263;-70
2022/03/25 16:57:01;;;;;;;;;;;;;;;16.97;28.98;99032.44;4826439;29;20254;-70
2022/03/25 16:59:29;;;;;;;;;;;;;;;16.93;29.07;99032.47;4828145;29;19949;-70
2022/03/25 17:02:12;;;;;;;;;;;;;;;16.85;29.13;99033.78;4829078;29;19958;-70
2022/03/25 17:04:40;;;;;;;;;;;;;;;16.81;29.16;99049.16;4829979;29;19974;-70
2022/03/25 17:07:07;;;;;;;;;;;;;;;16.72;29.66;99038.41;4830277;29;19955;-70
2022/03/25 17:09:35;;;;;;;;;;;;;;;16.66;29.55;99044.91;4830413;29;19955;-70
2022/03/25 17:12:02;;;;;;;;;;;;;;;16.60;29.67;99044.59;4830012;29;19974;-70
2022/03/25 17:14:30;;;;;;;;;;;;;;;16.54;30.12;99045.44;4815866;29;20320;-70
2022/03/25 17:16:57;;;;;;;;;;;;;;;16.42;30.83;99050.38;4828907;29;20221;-70
2022/03/25 17:19:24;;;;;;;;;;;;;;;16.31;31.13;99046.06;4827737;29;19949;-70
2022/03/25 17:21:52;;;;;;;;;;;;;;;16.21;30.69;99039.28;4828509;29;20274;-69
2022/03/25 17:24:19;;;;;;;;;;;;;;;16.15;30.98;99038.16;4828666;29;19956;-70
2022/03/25 17:26:47;;;;;;;;;;;;;;;16.08;31.16;99041.03;4828736;29;19945;-70
2022/03/25 17:29:14;;;;;;;;;;;;;;;16.03;30.96;99038.66;4826457;29;19948;-70
2022/03/25 17:31:42;;;;;;;;;;;;;;;15.99;30.97;99039.91;4819504;29;20230;-70
2022/03/25 17:34:09;;;;;;;;;;;;;;;15.94;30.54;99046.00;4826969;29;19951;-70
2022/03/25 17:36:37;;;;;;;;;;;;;;;15.90;31.08;99048.84;4829429;29;19964;-70
2022/03/25 17:39:04;;;;;;;;;;;;;;;15.87;30.92;99043.22;4828377;29;19945;-70
2022/03/25 17:41:32;;;;;;;;;;;;;;;15.85;31.17;99049.28;4828598;29;19948;-70
2022/03/25 17:44:01;;;;;;;;;;;;;;;15.77;31.48;99042.09;4828956;29;20393;-70
2022/03/25 17:46:29;;;;;;;;;;;;;;;15.69;31.26;99040.53;4828752;29;20271;-70
2022/03/25 17:48:56;;;;;;;;;;;;;;;15.58;31.82;99054.72;4829800;29;20325;-70
2022/03/25 17:51:23;;;;;;;;;;;;;;;15.51;31.60;99054.75;4828880;29;19946;-70
2022/03/25 17:53:51;;;;;;;;;;;;;;;15.43;31.84;99058.03;4828768;29;19952;-70
2022/03/25 17:56:20;;;;;;;;;;;;;;;15.35;31.73;99053.63;4826881;29;19951;-70
2022/03/25 17:58:47;;;;;;;;;;;;;;;15.30;31.92;99068.16;4828989;29;19948;-70
2022/03/25 18:01:14;;;;;;;;;;;;;;;15.28;32.44;99067.75;4820721;29;20431;-67
2022/03/25 18:03:42;;;;;;;;;;;;;;;15.28;32.17;99070.56;4823724;29;19957;-69
2022/03/25 18:06:09;;;;;;;;;;;;;;;15.27;32.43;99078.22;4825619;29;19973;-69
2022/03/25 18:08:37;;;;;;;;;;;;;;;15.26;32.82;99079.41;4827583;29;19984;-68
2022/03/25 18:11:08;;;;;;;;;;;;;;;15.22;32.92;99087.09;4825143;29;19972;-69
2022/03/25 18:13:35;;;;;;;;;;;;;;;15.20;33.34;99080.28;4813867;29;19959;-68
2022/03/25 18:16:03;;;;;;;;;;;;;;;15.09;33.49;99083.13;4823191;29;19951;-69
2022/03/25 18:18:30;;;;;;;;;;;;;;;15.01;33.62;99087.19;4828912;29;19960;-69
2022/03/25 18:20:57;;;;;;;;;;;;;;;14.90;34.01;99084.41;4828172;29;19946;-69
2022/03/25 18:23:27;;;;;;;;;;;;;;;14.82;33.90;99093.28;4830473;29;20024;-69
2022/03/25 18:25:55;;;;;;;;;;;;;;;14.72;35.05;99096.97;4819523;29;19975;-69
2022/03/25 18:28:24;;;;;;;;;;;;;;;14.52;35.88;99090.16;4814438;29;19953;-69
2022/03/25 18:30:51;;;;;;;;;;;;;;;14.37;36.56;99095.81;4826091;29;20243;-69
2022/03/25 18:33:18;;;;;;;;;;;;;;;14.23;37.32;99104.22;4819384;29;19949;-70
2022/03/25 18:35:47;;;;;;;;;;;;;;;14.05;37.41;99099.81;4825175;29;19954;-70
2022/03/25 18:38:15;;;;;;;;;;;;;;;13.94;37.94;99102.59;4810375;29;19953;-70
2022/03/25 18:40:42;;;;;;;;;;;;;;;13.94;37.44;99105.41;4824805;29;20255;-69
2022/03/25 18:43:11;;;;;;;;;;;;;;;13.95;36.44;99106.22;4828825;29;19952;-69
2022/03/25 18:45:42;;;;;;;;;;;;;;;13.98;35.75;99120.31;4821901;29;19965;-70
2022/03/25 18:48:10;;;;;;;;;;;;;;;13.91;35.53;99114.69;4828847;29;19956;-70
2022/03/25 18:50:37;;;;;;;;;;;;;;;13.91;34.27;99114.69;4825435;29;19952;-70
2022/03/25 18:53:05;;;;;;;;;;;;;;;13.91;34.12;99119.50;4827418;29;20233;-70
2022/03/25 18:55:32;;;;;;;;;;;;;;;13.91;33.61;99122.31;4826649;29;19949;-70
2022/03/25 18:58:00;;;;;;;;;;;;;;;13.88;32.96;99125.91;4826545;29;19952;-69
2022/03/25 19:00:28;;;;;;;;;;;;;;;13.86;32.20;99125.50;4827663;29;19944;-69
2022/03/25 19:02:55;;;;;;;;;;;;;;;13.87;31.74;99129.91;4826739;29;20350;-70
2022/03/25 19:05:22;;;;;;;;;;;;;;;13.89;32.12;99127.53;4826178;29;19972;-72
2022/03/25 19:07:50;;;;;;;;;;;;;;;13.89;31.57;99127.53;4825195;29;19960;-69
2022/03/25 19:10:20;;;;;;;;;;;;;;;13.91;30.88;99130.75;4826139;29;19957;-71
2022/03/25 19:12:48;;;;;;;;;;;;;;;13.92;30.28;99135.13;4825465;29;19950;-70
2022/03/25 19:15:15;;;;;;;;;;;;;;;13.92;30.00;99121.88;4826983;29;19944;-70
2022/03/25 19:17:43;;;;;;;;;;;;;;;13.93;30.15;99139.56;4826844;29;19960;-71
2022/03/25 19:20:12;;;;;;;;;;;;;;;13.89;30.43;99133.16;4825157;29;19954;-71
2022/03/25 19:22:43;;;;;;;;;;;;;;;13.84;30.39;99129.50;4827736;29;19954;-71
2022/03/25 19:25:11;;;;;;;;;;;;;;;13.83;30.11;99141.97;4826706;29;20238;-71
2022/03/25 19:27:38;;;;;;;;;;;;;;;13.83;29.58;99141.16;4826619;29;19947;-71
2022/03/25 19:30:06;;;;;;;;;;;;;;;13.79;29.18;99143.97;4823886;29;20366;-71
2022/03/25 19:32:34;;;;;;;;;;;;;;;13.78;28.98;99133.94;4824100;29;19953;-71
2022/03/25 19:35:03;;;;;;;;;;;;;;;13.76;28.50;99141.16;4825733;29;19986;-71
2022/03/25 19:37:31;;;;;;;;;;;;;;;13.73;28.41;99134.31;4827920;29;19957;-71
2022/03/25 19:39:58;;;;;;;;;;;;;;;13.71;28.08;99133.94;4824040;29;20336;-71
2022/03/25 19:42:28;;;;;;;;;;;;;;;13.69;28.19;99139.13;4825478;29;19951;-72
2022/03/25 19:44:56;;;;;;;;;;;;;;;13.68;27.79;99140.34;4820080;29;19967;-71
2022/03/25 19:47:24;;;;;;;;;;;;;;;13.68;28.43;99139.53;4827636;29;19979;-68
2022/03/25 19:49:51;;;;;;;;;;;;;;;13.67;28.40;99140.72;4827114;29;20262;-71
2022/03/25 19:52:18;;;;;;;;;;;;;;;13.63;27.98;99132.28;4820757;29;19954;-70
2022/03/25 19:54:46;;;;;;;;;;;;;;;13.60;28.22;99141.50;4826987;29;19952;-72
2022/03/25 19:57:13;;;;;;;;;;;;;;;13.61;27.78;99139.50;4819955;29;19949;-72
2022/03/25 19:59:42;;;;;;;;;;;;;;;13.57;28.14;99136.69;4820108;29;19954;-71
2022/03/25 20:02:11;;;;;;;;;;;;;;;13.51;28.08;99143.91;4821234;29;19984;-71
2022/03/25 20:04:41;;;;;;;;;;;;;;;13.48;28.03;99141.06;4816954;29;19952;-68
2022/03/25 20:07:09;;;;;;;;;;;;;;;13.48;27.93;99138.25;4823568;29;19971;-68
2022/03/25 20:09:37;;;;;;;;;;;;;;;13.46;27.64;99135.88;4820699;29;19951;-68
2022/03/25 20:12:06;;;;;;;;;;;;;;;13.48;28.10;99138.25;4831209;29;19978;-68
2022/03/25 20:14:34;;;;;;;;;;;;;;;13.43;28.11;99145.06;4826001;29;20359;-71
2022/03/25 20:17:02;;;;;;;;;;;;;;;13.40;28.14;99140.25;4831104;29;19948;-71
2022/03/25 20:19:30;;;;;;;;;;;;;;;13.48;28.27;99149.50;4825868;29;19959;-71
2022/03/25 20:21:57;;;;;;;;;;;;;;;13.41;28.33;99139.06;4831003;29;19958;-72
2022/03/25 20:24:26;;;;;;;;;;;;;;;13.34;28.12;99139.03;4815293;29;19949;-71
2022/03/25 20:26:54;;;;;;;;;;;;;;;13.33;28.41;99143.03;4831613;29;19975;-71
2022/03/25 20:29:26;;;;;;;;;;;;;;;13.32;28.25;99141.44;4830387;29;19952;-68
